Airports

 


Airport Name Latest METAR Visual Conditions
Cincinnati/Northern Kentucky International (CVG) KCVG 260116Z 06007KT 2SM -RA BR OVC004 02/01 A2973 RMK AO2 SFC VIS 4 RAB07 P0000 T00170006 $ LIFR
John Glenn Columbus International (CMH) KCMH 260051Z 06006KT 4SM BR BKN011 OVC016 01/M01 A2982 RMK AO2 SLP105 P0001 T00061006 $ MVFR
Yeager (CRW) KCRW 250054Z 03003KT 4SM BR FEW000 OVC028 00/00 A3005 RMK AO2 SLP187 FG FEW000 T00000000 $ MVFR
James M Cox Dayton International (DAY) KDAY 260119Z 06010KT 1 3/4SM -FZRA BR OVC004 01/00 A2980 RMK AO2 P0001 I1000 T00060000 $ LIFR
Evansville Regional (EVV) KEVV 260054Z 05007KT 10SM OVC003 04/03 A2962 RMK AO2 RAE11 SLP033 P0001 T00440028 LIFR
Indianapolis International (IND) KIND 260054Z 06014KT 3SM -FZDZ BR OVC006 00/M01 A2974 RMK AO2 SLP076 P0000 I1000 T00001006 IFR
Blue Grass (LEX) KLEX 260128Z 13009KT 9SM VCTS -RA SCT008 OVC037 07/06 A2967 RMK AO2 LTG DSNT NW P0001 T00670056 $ VFR
Louisville Muhammad Ali International (SDF) KSDF 260056Z 36005KT 10SM -RA OVC004 04/03 A2969 RMK AO2 LTG DSNT N AND NW RAB03E20B53 SLP056 P0000 T00440033 $ LIFR
Anderson Municipal-Darlington Field (AID) KAID 260115Z AUTO 07012G18KT 3SM BR OVC007 00/M01 A2978 RMK AO2 LTG DSNT S T10051012 IFR
Columbus Municipal (BAK) KBAK 260050Z 04008KT 4SM BR OVC008 00/00 A2975 FZRA IFR
Monroe County (BMG) KBMG 260119Z 07010G18KT 3SM -RA BR OVC004 02/00 A2968 RMK AO2 RAB0055 P0003 T00170000 LIFR
Wright-Patterson Air Force Base (FFO) KFFO 260056Z 06007KT 1 1/2SM -DZ BR OVC005 00/M01 A2979 RMK AO2A SLP099 P0000 T00021012 IFR
Godman Army Airfield (FTK) KFTK 260111Z AUTO 05006KT 10SM BKN006 OVC031 05/05 A2966 RMK AO2 RAE11 SLP050 IFR
Himsel Army Airfield (HBE) No weather for this Airport Unknown
Tri-State/Milton J Ferguson Field (HTS) KHTS 260051Z COR 04006KT 4SM UP OVC003 02/02 A2973 RMK AO2 RAE2352UPB39 SLP072 P0000 T00220017 LIFR
Terre Haute Regional (HUF) KHUF 260053Z 07012KT 9SM OVC007 01/00 A2970 RMK AO2 SLP064 T00110000 $ IFR
Wilmington Air Park (ILN) KILN 260123Z AUTO 06011KT 1 1/2SM -FZRA BR OVC003 00/M01 A2976 RMK AO2 FZRAB07 P0001 I1003 T00001011 LIFR
Rickenbacker International (LCK) KLCK 260055Z AUTO 05007KT 2 1/2SM -DZ OVC006 00/M01 A2982 RMK AO2 T10021006 IFR
Bowman Field (LOU) KLOU 260053Z 05005KT 10SM OVC005 04/02 A2969 RMK AO2 LTG DSNT NW RAE24 SLP057 P0000 T00390022 IFR
Cincinnati Municipal Airport Lunken Field (LUK) KLUK 260053Z 04005KT 10SM OVC009 02/01 A2977 RMK AO2 SLP084 T00220006 IFR
Delaware County Regional (MIE) KMIE 260114Z 08015KT 2 1/2SM HZ OVC007 01/M02 A2978 RMK AO2 I1001 T00061022 IFR
Ohio State University (OSU) KOSU 260124Z 05009KT 1 3/4SM -FZRA BR OVC008 01/M01 A2981 RMK AO2 UPB21E24FZRAB24 CIG 005V010 P0000 I1001 T00061006 IFR
Owensboro-Daviess County Regional (OWB) KOWB 260056Z 07007KT 10SM OVC004 06/06 A2961 RMK AO2 TSE2357RAE22B43E56 SLP031 P0001 T00610061 LIFR
Mid-Ohio Valley Regional (PKB) KPKB 260053Z 07005KT 3SM BR OVC005 01/00 A2981 RMK AO2 SLP100 T00110000 IFR
Bolton Field (TZR) KTZR 260115Z AUTO 05009KT 1 3/4SM +DZ OVC004 00/00 A2981 RMK AO2 LTG DSNT SW T00001003 LIFR
Middlesboro-Bell County (1A6) K1A6 260115Z AUTO 00000KT 7SM BKN009 OVC014 09/09 A2977 RMK AO2 LTG DSNT SW AND W T00940094 IFR
Georgetown-Scott County Regional (27K) K27K 260115Z AUTO 00000KT 5SM SCT036 BKN042 OVC050 02/02 A2972 RMK AO1 MVFR
Madisonville Regional (2I0) K2I0 260115Z AUTO 08005KT 7SM BKN004 BKN014 OVC020 A2959 RMK AO2 LIFR
Mason County (3I2) K3I2 260115Z AUTO 01003KT 10SM OVC006 02/02 A2978 RMK AO2 T00230023 IFR
Knox County (4I3) K4I3 260055Z AUTO 03010KT 5SM BR BKN008 BKN016 OVC022 M01/M01 A2984 RMK AO2 IFR
Lebanon Springfield-George Hoerter Field (6I2) K6I2 260110Z AUTO 14007KT 5SM BR SCT008 BKN020 OVC060 09/09 A2967 RMK AO2 MVFR
Logan County (6L4) K6L4 250115Z AUTO 18004KT 10SM OVC028 03/02 A3005 RMK AO2 MVFR
Livingston Municipal (8A3) K8A3 260115Z AUTO 21007KT 10SM OVC022 16/14 A2966 RMK A01 MVFR
Kee Field (I16) KI16 260115Z AUTO 10SM -RA SCT005 SCT070 OVC085 07/06 A2984 RMK AO2 T00660059 VFR
Greene County-Lewis A Jackson Regional (I19) KI19 260115Z AUTO 07003KT 1 3/4SM DZ OVC004 00/00 A2981 RMK AO2 LTG DSNT SW T00000000 LIFR
Fayette County (I23) KI23 250115Z AUTO 00000KT 1SM OVC006 M03/M03 A3006 RMK AO1 IFR
Tucker-Guthrie Memorial (I35) KI35 260115Z AUTO 09005KT 10SM BKN025 OVC033 10/09 A2976 RMK AO2 T00980093 MVFR
James A Rhodes (I43) KI43 260115Z AUTO 06005KT 10SM OVC005 01/01 A2978 RMK AO2 IFR
Cincinnati West (I67) KI67 260115Z AUTO 04008KT 10SM OVC005 01/00 A2977 RMK AO1 IFR
Clermont County (I69) KI69 260115Z AUTO 07004KT 10SM OVC006 02/01 A2976 RMK AO2 T00150008 IFR
Grimes Field (I74) KI74 260115Z AUTO 07010KT 2 1/2SM UP OVC007 00/00 A2980 RMK AO2 IFR
Hancock Co-Ron Lewis Field (KY8) KKY8 260115Z AUTO 02006KT 10SM OVC006 06/06 A2963 RMK A01 IFR
Brazil Clay County (0I2) No weather for this Airport Unknown
Cynthiana-Harrison County (0I8) No weather for this Airport Unknown
Holmes County (10G) No weather for this Airport Unknown
Ona Airpark (12V) No weather for this Airport Unknown
Mc Creary County (18I) No weather for this Airport Unknown
Casey Municipal (1H8) No weather for this Airport Unknown
Jamestown Municipal (2A1) No weather for this Airport Unknown
Hendricks County-Gordon Graham Fld (2R2) No weather for this Airport Unknown
Sky King (3I3) No weather for this Airport Unknown
Dayton-Phillipsburg (3I7) No weather for this Airport Unknown
Morrow County (4I9) No weather for this Airport Unknown
Sheridan (5I4) No weather for this Airport Unknown
Indianapolis Downtown (8A4) No weather for this Airport Unknown
Piqua Airport- Hartzell Field (I17) No weather for this Airport Unknown
Jackson County (I18) No weather for this Airport Unknown
Randolph County (I22) No weather for this Airport Unknown
Greensburg Municipalcipal (I34) No weather for this Airport Unknown
Richard Downing (I40) No weather for this Airport Unknown
Clinton Field (I66) No weather for this Airport Unknown
Warren County/John Lane Field (I68) No weather for this Airport Unknown
Perry County (I86) No weather for this Airport Unknown
Breckinridge County (I93) No weather for this Airport Unknown
Hardin County (I95) No weather for this Airport Unknown
Russell County (K24) No weather for this Airport Unknown
Gene Snyder (K62) No weather for this Airport Unknown
Leitchfield-Grayson Co (M20) No weather for this Airport Unknown
Taylor County (AAS) KAAS 260115Z AUTO 14016KT 1 1/4SM SCT014 BKN023 OVC036 10/10 A2971 RMK AO1 VIS 1/2V5 IFR
Mount Carmel Municipal (AJG) KAJG 260115Z AUTO 09010KT 2SM -RA OVC005 03/02 A2965 RMK AO2 LTG DSNT S T00250017 IFR
Alexander Salamon (AMT) No weather for this Airport Unknown
Lima Allen County (AOH) No weather for this Airport Unknown
Neil Armstrong (AXV) KAXV 260115Z AUTO 05011G16KT 2 1/2SM BR OVC006 00/M01 A2981 RMK AO2 LTG DSNT S IFR
Virgil I Grissom Municipal (BFR) No weather for this Airport Unknown
Raleigh County Memorial (BKW) KBKW 260118Z AUTO 17013G19KT 10SM FEW005 BKN070 OVC085 04/04 A2978 RMK AO2 T00440039 TSNO VFR
Mercer County (BLF) KBLF 260122Z AUTO 10006KT 9SM -RA FEW009 BKN065 OVC075 04/04 A2982 RMK AO2 RAB0059 P0001 T00440044 VFR
Samuels Field (BRY) KBRY 260115Z AUTO 00000KT 7SM SCT007 BKN010 BKN020 05/05 A2966 RMK AO1 MVFR
Williamsburg-Whitley County (BYL) KBYL 260115Z AUTO 13006KT 10SM BKN018 BKN025 OVC032 12/12 A2970 RMK AO1 MVFR
Mettel Field (CEV) No weather for this Airport Unknown
Crawfordsville Regional (CFJ) KCFJ 260115Z AUTO 07012KT 4SM BR OVC006 M01/M02 A2973 RMK AO2 LTG DSNT S T10121018 IFR
Wendell H Ford (CPF) No weather for this Airport Unknown
Lakefield (CQA) No weather for this Airport Unknown
Carmi Municipal (CUL) No weather for this Airport Unknown
Pickaway County Memorial (CYO) No weather for this Airport Unknown
Daviess County (DCY) KDCY 260115Z AUTO 08008KT 2 1/2SM RA OVC004 02/02 A2966 RMK AO2 LTG DSNT S T00200020 LIFR
Delaware Municipal - Jim Moore Field (DLZ) No weather for this Airport Unknown
Stuart Powell Field (DVK) KDVK 260115Z AUTO 00000KT 10SM RA BKN007 OVC021 08/08 A2969 RMK AO2 IFR
Ashland Regional (DWU) No weather for this Airport Unknown
Appalachian Regional (EBD) No weather for this Airport Unknown
Bellefontaine Regional (EDJ) No weather for this Airport Unknown
Henderson City-County (EHR) KEHR 260056Z AUTO 06006KT 10SM OVC003 05/05 A2961 RMK AO2 SLP027 T00500050 LIFR
Wayne County (EKQ) No weather for this Airport Unknown
Addington Field (EKX) No weather for this Airport Unknown
Pike County (EOP) No weather for this Airport Unknown
Eagle Creek Airpark (EYE) No weather for this Airport Unknown
Capital City (FFT) No weather for this Airport Unknown
Fleming-Mason (FGX) KFGX 260115Z AUTO 09006KT 10SM -RA OVC004 02/02 A2975 RMK AO2 T00150015 LIFR
French Lick Municipal (FRH) No weather for this Airport Unknown
Gallia-Meigs Regional (GAS) No weather for this Airport Unknown
Brown County (GEO) No weather for this Airport Unknown
Shelbyville Municipal (GEZ) No weather for this Airport Unknown
Putnam County Regional (GPC) KGPC 260115Z AUTO 07014KT 4SM -DZ BR OVC005 00/00 A2971 RMK AO2 LTG DSNT S T00011005 IFR
Butler Co Regional-Hogan Field (HAO) No weather for this Airport Unknown
Indy South Greenwood (HFY) KHFY 260115Z AUTO 07007KT 2 1/2SM OVC004 00/00 A2974 RMK AO2 T00001003 LIFR
Huntingburg (HNB) KHNB 260129Z AUTO 06006KT 10SM OVC005 03/03 A2963 RMK AO2 RAE06 P0000 IFR
Highland County (HOC) No weather for this Airport Unknown
Madison Municipal (IMS) No weather for this Airport Unknown
Mount Sterling-Montgomery County (IOB) KIOB 260115Z AUTO 14003KT 10SM RA OVC006 06/06 A2972 RMK AO2 P0002 IFR
Julian Carroll (JKL) No weather for this Airport Unknown
Ohio County (JQD) No weather for this Airport Unknown
Clark Regional (JVY) KJVY 260115Z AUTO 02004KT 10SM RA OVC005 03/03 A2971 RMK AO2 T00260026 TSNO IFR
Fairfield County (LHQ) KLHQ 260101Z AUTO 06008KT 2 1/2SM BR OVC006 01/M01 A2982 RMK AO2 I1000 T00061006 IFR
Lonesome Pine (LNP) No weather for this Airport Unknown
London-Corbin Arpt-Magee Field (LOZ) KLOZ 260053Z AUTO 15004KT 10SM -RA FEW031 OVC050 09/ A2971 RMK AO2 LTG DSNT W SLP063 P0007 T0089 $ VFR
Lawrenceville-Vincennes International (LWV) No weather for this Airport Unknown
Dayton-Wright Brothers (MGY) KMGY 260118Z AUTO 05011KT 1 3/4SM -RA BR OVC005 01/M01 A2976 RMK AO2 P0001 T00061006 IFR
Indianapolis Regional (MQJ) No weather for this Airport Unknown
Union County (MRT) KMRT 250115Z AUTO 20004KT 4SM OVC004 M02/M03 A3007 RMK AO2 T10241030 LIFR
Middletown Regional/Hook Field (MWO) KMWO 250115Z AUTO 00000KT 3SM BR OVC003 M01/ A3008 RMK AO2 T1006//// LIFR
North Vernon (OVO) No weather for this Airport Unknown
Miami University (OXD) KOXD 260115Z AUTO 06004KT 2 1/2SM -SN OVC004 01/01 A2975 RMK AO2 LTG DSNT S T00050005 LIFR
Pike County-Hatcher Field (PBX) KPBX 260115Z AUTO 15005KT 10SM -RA SCT002 SCT025 OVC085 08/08 A2975 RMK AO2 LTG DSNT SW T00750075 VFR
Greater Portsmouth Regional (PMH) KPMH 260115Z AUTO 01003KT 5SM -RA OVC004 A2978 RMK AO2 LTG DSNT SW P0001 LIFR
Edgar County (PRG) No weather for this Airport Unknown
Central Kentucky Regional (RGA) KRGA 260115Z AUTO 00000KT 5SM SCT043 BKN050 OVC090 09/08 A2971 RMK AO2 MVFR
Richmond Municipal (RID) KRID 260115Z AUTO 06010KT 2 1/2SM OVC006 00/00 A2977 RMK AO2 PWINO IFR
Crawford Co (RSV) KRSV 260115Z AUTO 07009KT 2 1/2SM BR OVC006 02/01 A2969 RMK AO2 T00150012 IFR
Ross County (RZT) KRZT 260115Z AUTO 03006KT 2SM OVC004 00/00 A2979 RMK AO2 P0001 PWINO LIFR
Sidney Municipal (SCA) No weather for this Airport Unknown
Scott Municipal (SCX) KSCX 260115Z AUTO 19014G21KT 10SM OVC005 13/13 A2971 RMK A01 IFR
Freeman Municipal (SER) No weather for this Airport Unknown
Springfield-Beckley Municipal (SGH) No weather for this Airport Unknown
Sullivan County (SIV) No weather for this Airport Unknown
Big Sandy Regional (SJS) KSJS 260115Z AUTO 19011KT 7SM RA SCT009 SCT029 OVC080 08/08 A2972 RMK AO2 T00780078 VFR
Lake Cumberland Regional (SME) No weather for this Airport Unknown
Summersville (SXL) No weather for this Airport Unknown
Morehead-Rowan County Clyde A Thomas Regional (SYM) KSYM 260115Z AUTO VRB05KT 1/2SM RA OVC002 05/04 A2975 RMK AO2 LIFR
Perry County Municipal (TEL) No weather for this Airport Unknown
Sturgis Municipal (TWT) No weather for this Airport Unknown
Indianapolis Executive (TYQ) KTYQ 250115Z AUTO 35004KT 10SM OVC008 00/M01 A3008 RMK AO2 T10051012 IFR
Indianapolis Metropolitan (UMP) No weather for this Airport Unknown
Ohio University (UNI) KUNI 260055Z AUTO 04007KT 10SM OVC005 A2978 RMK AO2 LTG DSNT SW IFR
Boggs Field (USW) No weather for this Airport Unknown
New Castle Henry County Marlatt Field (UWL) No weather for this Airport Unknown
Madison County (UYF) KUYF 250115Z AUTO 00000KT 5SM BR OVC004 M02/M03 A3005 RMK AO2 LIFR
Darke County (VES) KVES 260115Z AUTO 06006KT 3SM BR OVC005 00/00 A2981 RMK AO2 LTG DSNT S IFR
Newark-Heath (VTA) KVTA 260054Z AUTO A2982 RMK AO2 SLPNO PWINO FZRANO VFR
Zanesville Municipal (ZZV) KZZV 260117Z AUTO 05010KT 6SM BR FEW009 BKN020 OVC036 01/M01 A2982 RMK AO2 T00061006 MVFR
Red Stewart Airfield (40I) No weather for this Airport Unknown
Dahio Trotwood (I44) No weather for this Airport Unknown
Mad River Airpark (I54) No weather for this Airport Unknown
Moraine Air Park (I73) No weather for this Airport Unknown
Alexandria (I99) No weather for this Airport Unknown
Fry (0OH8) No weather for this Airport Unknown
Fayette County Memorial Hospital (11OH) No weather for this Airport Unknown
Uk Hospital (37KY) No weather for this Airport Unknown
Andy Barnhart Memorial (3OH0) No weather for this Airport Unknown
Medical Center Albany (45KY) No weather for this Airport Unknown
Westlake Regional Hospital (48KY) No weather for this Airport Unknown
Manchester Memorial Hospital (4KY2) No weather for this Airport Unknown
Bethesda Hospital Helistop (4OH2) No weather for this Airport Unknown
Appalachian Regional Hospital (51KY) No weather for this Airport Unknown
Bedford Medical Center (57IN) No weather for this Airport Unknown
Union Hospital (60II) No weather for this Airport Unknown
Skydive Greene County Inc (7OA7) No weather for this Airport Unknown
Methodist Hospital Of In Inc (81II) No weather for this Airport Unknown
Saint Joseph Hospital (88KY) No weather for this Airport Unknown
Riverside Methodist Hospital (9OI9) No weather for this Airport Unknown
Decatur County Memorial Hospital (IN35) No weather for this Airport Unknown
Reid Hospital (IN68) No weather for this Airport Unknown
Ball Memorial Hospital (IN74) No weather for this Airport Unknown
Iu Health Morgan (IN84) No weather for this Airport Unknown
Grant Medical Center (OH01) No weather for this Airport Unknown
Knox Communicipalty Hospital (OH04) No weather for this Airport Unknown
O'Bleness Memorial Hospital (OH23) No weather for this Airport Unknown
Schaney'S Lair (OH46) No weather for this Airport Unknown
Southern Ohio Regional Medical Center (OH62) No weather for this Airport Unknown
Troy Skypark (OH71) No weather for this Airport Unknown
Nationwide Children'S Hospital (OI95) No weather for this Airport Unknown